sensor_id;sensor_type;location;lat;lon;timestamp;P1;durP1;ratioP1;P2;durP2;ratioP2
20065;SDS011;10193;48.884;9.182;2022-10-03T00:02:32;4.70;;;4.20;;
20065;SDS011;10193;48.884;9.182;2022-10-03T00:05:18;4.05;;;3.75;;
20065;SDS011;10193;48.884;9.182;2022-10-03T00:08:00;4.95;;;4.55;;
20065;SDS011;10193;48.884;9.182;2022-10-03T00:10:37;4.70;;;4.30;;
20065;SDS011;10193;48.884;9.182;2022-10-03T00:13:18;5.25;;;4.75;;
20065;SDS011;10193;48.884;9.182;2022-10-03T00:15:52;5.53;;;4.85;;
20065;SDS011;10193;48.884;9.182;2022-10-03T00:18:33;5.30;;;4.72;;
20065;SDS011;10193;48.884;9.182;2022-10-03T00:21:09;5.30;;;4.85;;
20065;SDS011;10193;48.884;9.182;2022-10-03T00:23:46;5.63;;;5.13;;
20065;SDS011;10193;48.884;9.182;2022-10-03T00:26:23;5.68;;;5.07;;
20065;SDS011;10193;48.884;9.182;2022-10-03T00:29:07;6.03;;;5.43;;
20065;SDS011;10193;48.884;9.182;2022-10-03T00:31:52;4.90;;;4.50;;
20065;SDS011;10193;48.884;9.182;2022-10-03T00:34:26;5.53;;;5.03;;
20065;SDS011;10193;48.884;9.182;2022-10-03T00:37:06;5.57;;;5.07;;
20065;SDS011;10193;48.884;9.182;2022-10-03T00:39:50;5.93;;;5.43;;
20065;SDS011;10193;48.884;9.182;2022-10-03T00:45:45;5.20;;;4.80;;
20065;SDS011;10193;48.884;9.182;2022-10-03T00:48:29;5.50;;;5.00;;
20065;SDS011;10193;48.884;9.182;2022-10-03T00:51:33;5.03;;;4.63;;
20065;SDS011;10193;48.884;9.182;2022-10-03T00:54:18;5.47;;;4.93;;
20065;SDS011;10193;48.884;9.182;2022-10-03T00:57:05;5.30;;;4.90;;
20065;SDS011;10193;48.884;9.182;2022-10-03T01:00:00;5.38;;;4.88;;
20065;SDS011;10193;48.884;9.182;2022-10-03T01:02:33;5.05;;;4.65;;
20065;SDS011;10193;48.884;9.182;2022-10-03T01:05:15;5.25;;;4.82;;
20065;SDS011;10193;48.884;9.182;2022-10-03T01:08:06;5.40;;;4.97;;
20065;SDS011;10193;48.884;9.182;2022-10-03T01:10:51;5.30;;;4.80;;
20065;SDS011;10193;48.884;9.182;2022-10-03T01:13:26;5.15;;;4.63;;
20065;SDS011;10193;48.884;9.182;2022-10-03T01:16:05;5.30;;;4.90;;
20065;SDS011;10193;48.884;9.182;2022-10-03T01:18:45;5.10;;;4.60;;
20065;SDS011;10193;48.884;9.182;2022-10-03T01:21:26;5.05;;;4.60;;
20065;SDS011;10193;48.884;9.182;2022-10-03T01:24:20;4.90;;;4.50;;
20065;SDS011;10193;48.884;9.182;2022-10-03T01:27:00;4.90;;;4.40;;
20065;SDS011;10193;48.884;9.182;2022-10-03T01:29:46;5.45;;;4.95;;
20065;SDS011;10193;48.884;9.182;2022-10-03T01:32:37;5.05;;;4.55;;
20065;SDS011;10193;48.884;9.182;2022-10-03T01:35:12;5.43;;;5.03;;
20065;SDS011;10193;48.884;9.182;2022-10-03T01:37:47;5.28;;;4.82;;
20065;SDS011;10193;48.884;9.182;2022-10-03T01:40:24;4.75;;;4.35;;
20065;SDS011;10193;48.884;9.182;2022-10-03T01:43:05;5.30;;;4.88;;
20065;SDS011;10193;48.884;9.182;2022-10-03T01:45:43;5.40;;;4.90;;
20065;SDS011;10193;48.884;9.182;2022-10-03T01:48:22;6.20;;;5.60;;
20065;SDS011;10193;48.884;9.182;2022-10-03T01:50:58;5.63;;;5.13;;
20065;SDS011;10193;48.884;9.182;2022-10-03T01:53:32;6.00;;;5.45;;
20065;SDS011;10193;48.884;9.182;2022-10-03T01:56:11;5.75;;;5.25;;
20065;SDS011;10193;48.884;9.182;2022-10-03T01:58:48;5.55;;;5.15;;
20065;SDS011;10193;48.884;9.182;2022-10-03T02:01:27;5.55;;;5.05;;
20065;SDS011;10193;48.884;9.182;2022-10-03T02:04:00;5.90;;;5.43;;
20065;SDS011;10193;48.884;9.182;2022-10-03T02:06:34;5.65;;;5.15;;
20065;SDS011;10193;48.884;9.182;2022-10-03T02:09:09;5.50;;;5.03;;
20065;SDS011;10193;48.884;9.182;2022-10-03T02:11:54;6.15;;;5.57;;
20065;SDS011;10193;48.884;9.182;2022-10-03T02:14:28;6.10;;;5.60;;
20065;SDS011;10193;48.884;9.182;2022-10-03T02:17:02;5.95;;;5.45;;
20065;SDS011;10193;48.884;9.182;2022-10-03T02:19:35;5.72;;;5.22;;
20065;SDS011;10193;48.884;9.182;2022-10-03T02:22:13;6.70;;;6.05;;
20065;SDS011;10193;48.884;9.182;2022-10-03T02:24:42;5.80;;;5.30;;
20065;SDS011;10193;48.884;9.182;2022-10-03T02:30:30;5.07;;;4.68;;
20065;SDS011;10193;48.884;9.182;2022-10-03T02:33:31;5.28;;;4.88;;
20065;SDS011;10193;48.884;9.182;2022-10-03T02:36:23;5.18;;;4.72;;
20065;SDS011;10193;48.884;9.182;2022-10-03T02:42:38;5.60;;;5.10;;
20065;SDS011;10193;48.884;9.182;2022-10-03T02:45:50;5.63;;;5.13;;
20065;SDS011;10193;48.884;9.182;2022-10-03T02:48:42;5.72;;;5.22;;
20065;SDS011;10193;48.884;9.182;2022-10-03T02:51:42;5.43;;;4.93;;
20065;SDS011;10193;48.884;9.182;2022-10-03T02:54:46;6.40;;;5.80;;
20065;SDS011;10193;48.884;9.182;2022-10-03T03:00:20;6.00;;;5.50;;
20065;SDS011;10193;48.884;9.182;2022-10-03T03:11:36;5.30;;;4.80;;
20065;SDS011;10193;48.884;9.182;2022-10-03T03:17:26;5.03;;;4.57;;
20065;SDS011;10193;48.884;9.182;2022-10-03T03:20:09;5.22;;;4.72;;
20065;SDS011;10193;48.884;9.182;2022-10-03T03:22:55;5.38;;;4.93;;
20065;SDS011;10193;48.884;9.182;2022-10-03T03:28:32;4.93;;;4.53;;
20065;SDS011;10193;48.884;9.182;2022-10-03T03:31:09;5.15;;;4.65;;
20065;SDS011;10193;48.884;9.182;2022-10-03T03:33:45;5.05;;;4.63;;
20065;SDS011;10193;48.884;9.182;2022-10-03T03:36:22;4.85;;;4.45;;
20065;SDS011;10193;48.884;9.182;2022-10-03T03:38:59;5.13;;;4.57;;
20065;SDS011;10193;48.884;9.182;2022-10-03T03:41:42;5.72;;;4.70;;
20065;SDS011;10193;48.884;9.182;2022-10-03T03:44:31;4.97;;;4.47;;
20065;SDS011;10193;48.884;9.182;2022-10-03T03:50:29;5.22;;;4.75;;
20065;SDS011;10193;48.884;9.182;2022-10-03T03:53:27;5.20;;;4.70;;
20065;SDS011;10193;48.884;9.182;2022-10-03T03:56:16;5.35;;;4.85;;
20065;SDS011;10193;48.884;9.182;2022-10-03T03:59:06;5.03;;;4.53;;
20065;SDS011;10193;48.884;9.182;2022-10-03T04:01:48;5.30;;;4.80;;
20065;SDS011;10193;48.884;9.182;2022-10-03T04:04:37;5.32;;;4.65;;
20065;SDS011;10193;48.884;9.182;2022-10-03T04:07:14;5.15;;;4.70;;
20065;SDS011;10193;48.884;9.182;2022-10-03T04:12:52;4.97;;;4.57;;
20065;SDS011;10193;48.884;9.182;2022-10-03T04:15:38;4.90;;;4.50;;
20065;SDS011;10193;48.884;9.182;2022-10-03T04:21:27;6.28;;;5.03;;
20065;SDS011;10193;48.884;9.182;2022-10-03T04:24:07;5.68;;;5.18;;
20065;SDS011;10193;48.884;9.182;2022-10-03T04:27:03;5.47;;;4.97;;
20065;SDS011;10193;48.884;9.182;2022-10-03T04:29:43;6.07;;;5.47;;
20065;SDS011;10193;48.884;9.182;2022-10-03T04:32:28;5.95;;;5.45;;
20065;SDS011;10193;48.884;9.182;2022-10-03T04:35:14;6.32;;;5.72;;
20065;SDS011;10193;48.884;9.182;2022-10-03T04:37:51;6.10;;;5.50;;
20065;SDS011;10193;48.884;9.182;2022-10-03T04:40:31;6.22;;;5.40;;
20065;SDS011;10193;48.884;9.182;2022-10-03T04:43:09;6.20;;;5.60;;
20065;SDS011;10193;48.884;9.182;2022-10-03T04:48:29;5.95;;;5.40;;
20065;SDS011;10193;48.884;9.182;2022-10-03T04:51:05;6.25;;;5.70;;
20065;SDS011;10193;48.884;9.182;2022-10-03T04:53:43;5.97;;;5.47;;
20065;SDS011;10193;48.884;9.182;2022-10-03T04:56:21;6.57;;;5.97;;
20065;SDS011;10193;48.884;9.182;2022-10-03T04:59:01;6.82;;;6.03;;
20065;SDS011;10193;48.884;9.182;2022-10-03T05:01:39;6.25;;;5.63;;
20065;SDS011;10193;48.884;9.182;2022-10-03T05:04:17;6.72;;;5.97;;
20065;SDS011;10193;48.884;9.182;2022-10-03T05:06:53;6.75;;;6.05;;
20065;SDS011;10193;48.884;9.182;2022-10-03T05:09:26;7.05;;;6.35;;
20065;SDS011;10193;48.884;9.182;2022-10-03T05:12:00;7.97;;;6.43;;
20065;SDS011;10193;48.884;9.182;2022-10-03T05:14:38;7.07;;;6.38;;
20065;SDS011;10193;48.884;9.182;2022-10-03T05:17:19;7.28;;;6.63;;
20065;SDS011;10193;48.884;9.182;2022-10-03T05:20:02;6.53;;;5.93;;
20065;SDS011;10193;48.884;9.182;2022-10-03T05:22:55;7.43;;;6.72;;
20065;SDS011;10193;48.884;9.182;2022-10-03T05:25:30;8.65;;;6.20;;
20065;SDS011;10193;48.884;9.182;2022-10-03T05:28:12;7.22;;;6.53;;
20065;SDS011;10193;48.884;9.182;2022-10-03T05:30:47;6.57;;;5.90;;
20065;SDS011;10193;48.884;9.182;2022-10-03T05:33:23;7.85;;;6.72;;
20065;SDS011;10193;48.884;9.182;2022-10-03T05:36:03;7.30;;;6.60;;
20065;SDS011;10193;48.884;9.182;2022-10-03T05:39:01;6.88;;;6.28;;
20065;SDS011;10193;48.884;9.182;2022-10-03T05:41:51;6.97;;;6.30;;
20065;SDS011;10193;48.884;9.182;2022-10-03T05:44:23;7.47;;;6.78;;
20065;SDS011;10193;48.884;9.182;2022-10-03T05:47:07;7.55;;;6.70;;
20065;SDS011;10193;48.884;9.182;2022-10-03T05:49:56;7.40;;;6.53;;
20065;SDS011;10193;48.884;9.182;2022-10-03T05:52:47;7.20;;;6.45;;
20065;SDS011;10193;48.884;9.182;2022-10-03T05:55:27;7.55;;;6.75;;
20065;SDS011;10193;48.884;9.182;2022-10-03T06:01:08;6.40;;;5.80;;
20065;SDS011;10193;48.884;9.182;2022-10-03T06:03:57;6.53;;;5.93;;
20065;SDS011;10193;48.884;9.182;2022-10-03T06:06:45;6.32;;;5.72;;
20065;SDS011;10193;48.884;9.182;2022-10-03T06:12:23;6.43;;;5.82;;
20065;SDS011;10193;48.884;9.182;2022-10-03T06:17:59;7.60;;;6.40;;
20065;SDS011;10193;48.884;9.182;2022-10-03T06:20:41;6.80;;;6.00;;
20065;SDS011;10193;48.884;9.182;2022-10-03T06:26:45;6.47;;;5.88;;
20065;SDS011;10193;48.884;9.182;2022-10-03T06:29:53;6.22;;;5.65;;
20065;SDS011;10193;48.884;9.182;2022-10-03T06:35:46;6.93;;;6.05;;
20065;SDS011;10193;48.884;9.182;2022-10-03T06:42:06;6.45;;;5.82;;
20065;SDS011;10193;48.884;9.182;2022-10-03T06:44:50;6.15;;;5.53;;
20065;SDS011;10193;48.884;9.182;2022-10-03T06:47:41;6.68;;;5.97;;
20065;SDS011;10193;48.884;9.182;2022-10-03T06:50:25;6.95;;;6.25;;
20065;SDS011;10193;48.884;9.182;2022-10-03T06:59:13;7.63;;;6.93;;
20065;SDS011;10193;48.884;9.182;2022-10-03T07:02:01;7.07;;;6.38;;
20065;SDS011;10193;48.884;9.182;2022-10-03T07:11:28;7.07;;;6.38;;
20065;SDS011;10193;48.884;9.182;2022-10-03T07:14:36;7.30;;;6.53;;
20065;SDS011;10193;48.884;9.182;2022-10-03T07:17:23;8.25;;;6.93;;
20065;SDS011;10193;48.884;9.182;2022-10-03T07:26:18;7.75;;;7.00;;
20065;SDS011;10193;48.884;9.182;2022-10-03T07:29:17;6.63;;;6.03;;
20065;SDS011;10193;48.884;9.182;2022-10-03T07:38:28;6.88;;;6.07;;
20065;SDS011;10193;48.884;9.182;2022-10-03T07:41:41;7.80;;;6.28;;
20065;SDS011;10193;48.884;9.182;2022-10-03T07:44:30;6.45;;;5.85;;
20065;SDS011;10193;48.884;9.182;2022-10-03T07:50:32;6.13;;;5.43;;
20065;SDS011;10193;48.884;9.182;2022-10-03T07:53:21;7.25;;;5.88;;
20065;SDS011;10193;48.884;9.182;2022-10-03T07:56:13;6.90;;;5.55;;
20065;SDS011;10193;48.884;9.182;2022-10-03T07:58:54;7.07;;;5.47;;
20065;SDS011;10193;48.884;9.182;2022-10-03T08:01:41;7.07;;;5.82;;
20065;SDS011;10193;48.884;9.182;2022-10-03T08:04:32;6.53;;;5.40;;
20065;SDS011;10193;48.884;9.182;2022-10-03T08:07:21;6.00;;;5.00;;
20065;SDS011;10193;48.884;9.182;2022-10-03T08:10:00;5.32;;;4.60;;
20065;SDS011;10193;48.884;9.182;2022-10-03T08:12:57;5.35;;;4.65;;
20065;SDS011;10193;48.884;9.182;2022-10-03T08:15:57;5.22;;;4.65;;
20065;SDS011;10193;48.884;9.182;2022-10-03T08:18:55;5.50;;;4.82;;
20065;SDS011;10193;48.884;9.182;2022-10-03T08:21:40;7.05;;;4.85;;
20065;SDS011;10193;48.884;9.182;2022-10-03T08:24:38;6.15;;;4.70;;
20065;SDS011;10193;48.884;9.182;2022-10-03T08:27:21;5.20;;;4.28;;
20065;SDS011;10193;48.884;9.182;2022-10-03T08:30:18;5.30;;;4.50;;
20065;SDS011;10193;48.884;9.182;2022-10-03T08:32:53;6.50;;;4.60;;
20065;SDS011;10193;48.884;9.182;2022-10-03T08:39:00;5.60;;;4.25;;
20065;SDS011;10193;48.884;9.182;2022-10-03T08:41:41;6.68;;;4.35;;
20065;SDS011;10193;48.884;9.182;2022-10-03T08:47:58;5.93;;;4.15;;
20065;SDS011;10193;48.884;9.182;2022-10-03T08:50:55;4.75;;;3.90;;
20065;SDS011;10193;48.884;9.182;2022-10-03T08:53:51;4.70;;;3.67;;
20065;SDS011;10193;48.884;9.182;2022-10-03T08:56:33;4.47;;;3.70;;
20065;SDS011;10193;48.884;9.182;2022-10-03T08:59:18;4.15;;;3.38;;
20065;SDS011;10193;48.884;9.182;2022-10-03T09:05:19;6.25;;;3.47;;
20065;SDS011;10193;48.884;9.182;2022-10-03T09:08:11;4.30;;;3.90;;
20065;SDS011;10193;48.884;9.182;2022-10-03T09:14:31;5.68;;;3.40;;
20065;SDS011;10193;48.884;9.182;2022-10-03T09:17:14;3.85;;;3.50;;
20065;SDS011;10193;48.884;9.182;2022-10-03T09:26:02;3.63;;;3.33;;
20065;SDS011;10193;48.884;9.182;2022-10-03T09:31:58;4.07;;;3.67;;
20065;SDS011;10193;48.884;9.182;2022-10-03T09:37:53;3.83;;;3.53;;
20065;SDS011;10193;48.884;9.182;2022-10-03T09:44:12;4.07;;;3.72;;
20065;SDS011;10193;48.884;9.182;2022-10-03T09:52:49;4.65;;;4.05;;
20065;SDS011;10193;48.884;9.182;2022-10-03T09:55:43;5.90;;;4.15;;
20065;SDS011;10193;48.884;9.182;2022-10-03T10:01:31;7.28;;;4.50;;
20065;SDS011;10193;48.884;9.182;2022-10-03T10:10:28;4.97;;;4.38;;
20065;SDS011;10193;48.884;9.182;2022-10-03T10:16:42;3.90;;;3.58;;
20065;SDS011;10193;48.884;9.182;2022-10-03T10:19:22;6.82;;;4.70;;
20065;SDS011;10193;48.884;9.182;2022-10-03T10:25:17;4.90;;;4.40;;
20065;SDS011;10193;48.884;9.182;2022-10-03T10:31:16;5.47;;;4.97;;
20065;SDS011;10193;48.884;9.182;2022-10-03T10:34:32;4.95;;;4.50;;
20065;SDS011;10193;48.884;9.182;2022-10-03T10:37:46;7.53;;;4.50;;
20065;SDS011;10193;48.884;9.182;2022-10-03T10:40:41;4.68;;;4.18;;
20065;SDS011;10193;48.884;9.182;2022-10-03T10:43:49;5.28;;;4.30;;
20065;SDS011;10193;48.884;9.182;2022-10-03T10:46:47;4.97;;;4.50;;
20065;SDS011;10193;48.884;9.182;2022-10-03T10:49:52;5.93;;;4.40;;
20065;SDS011;10193;48.884;9.182;2022-10-03T10:55:54;3.90;;;3.60;;
20065;SDS011;10193;48.884;9.182;2022-10-03T10:59:02;3.60;;;3.20;;
20065;SDS011;10193;48.884;9.182;2022-10-03T11:02:24;5.13;;;3.55;;
20065;SDS011;10193;48.884;9.182;2022-10-03T11:08:25;6.35;;;4.00;;
20065;SDS011;10193;48.884;9.182;2022-10-03T11:17:46;5.30;;;4.00;;
20065;SDS011;10193;48.884;9.182;2022-10-03T11:30:19;3.42;;;3.00;;
20065;SDS011;10193;48.884;9.182;2022-10-03T11:33:22;3.50;;;3.20;;
20065;SDS011;10193;48.884;9.182;2022-10-03T11:36:22;3.60;;;3.30;;
20065;SDS011;10193;48.884;9.182;2022-10-03T11:39:14;3.50;;;3.00;;
20065;SDS011;10193;48.884;9.182;2022-10-03T11:41:50;3.97;;;3.08;;
20065;SDS011;10193;48.884;9.182;2022-10-03T11:44:26;5.88;;;4.03;;
20065;SDS011;10193;48.884;9.182;2022-10-03T11:56:09;2.90;;;2.58;;
20065;SDS011;10193;48.884;9.182;2022-10-03T12:02:04;3.97;;;2.60;;
20065;SDS011;10193;48.884;9.182;2022-10-03T12:04:43;3.88;;;2.63;;
20065;SDS011;10193;48.884;9.182;2022-10-03T12:07:25;4.18;;;2.67;;
20065;SDS011;10193;48.884;9.182;2022-10-03T12:10:25;4.80;;;2.95;;
20065;SDS011;10193;48.884;9.182;2022-10-03T12:13:03;3.88;;;2.65;;
20065;SDS011;10193;48.884;9.182;2022-10-03T12:15:39;2.45;;;2.22;;
20065;SDS011;10193;48.884;9.182;2022-10-03T12:18:09;4.50;;;2.22;;
20065;SDS011;10193;48.884;9.182;2022-10-03T12:20:45;3.08;;;2.30;;
20065;SDS011;10193;48.884;9.182;2022-10-03T12:23:40;3.15;;;2.47;;
20065;SDS011;10193;48.884;9.182;2022-10-03T12:26:33;3.70;;;2.30;;
20065;SDS011;10193;48.884;9.182;2022-10-03T12:29:09;3.28;;;2.50;;
20065;SDS011;10193;48.884;9.182;2022-10-03T12:31:38;3.45;;;2.40;;
20065;SDS011;10193;48.884;9.182;2022-10-03T12:34:17;2.30;;;2.10;;
20065;SDS011;10193;48.884;9.182;2022-10-03T12:36:59;3.97;;;2.25;;
20065;SDS011;10193;48.884;9.182;2022-10-03T12:39:43;2.95;;;2.60;;
20065;SDS011;10193;48.884;9.182;2022-10-03T12:42:23;3.38;;;2.30;;
20065;SDS011;10193;48.884;9.182;2022-10-03T12:44:55;3.55;;;2.30;;
20065;SDS011;10193;48.884;9.182;2022-10-03T12:47:29;2.33;;;2.05;;
20065;SDS011;10193;48.884;9.182;2022-10-03T12:50:08;2.50;;;2.30;;
20065;SDS011;10193;48.884;9.182;2022-10-03T12:52:47;3.15;;;2.30;;
20065;SDS011;10193;48.884;9.182;2022-10-03T12:55:24;5.18;;;3.85;;
20065;SDS011;10193;48.884;9.182;2022-10-03T12:57:57;3.08;;;2.70;;
20065;SDS011;10193;48.884;9.182;2022-10-03T13:00:30;2.47;;;2.28;;
20065;SDS011;10193;48.884;9.182;2022-10-03T13:03:13;3.70;;;2.42;;
20065;SDS011;10193;48.884;9.182;2022-10-03T13:05:50;3.17;;;2.17;;
20065;SDS011;10193;48.884;9.182;2022-10-03T13:08:37;4.20;;;2.30;;
20065;SDS011;10193;48.884;9.182;2022-10-03T13:11:16;2.30;;;2.10;;
20065;SDS011;10193;48.884;9.182;2022-10-03T13:13:54;2.92;;;2.10;;
20065;SDS011;10193;48.884;9.182;2022-10-03T13:16:27;2.40;;;2.20;;
20065;SDS011;10193;48.884;9.182;2022-10-03T13:18:57;3.15;;;2.20;;
20065;SDS011;10193;48.884;9.182;2022-10-03T13:21:34;2.42;;;1.85;;
20065;SDS011;10193;48.884;9.182;2022-10-03T13:24:20;4.20;;;2.15;;
20065;SDS011;10193;48.884;9.182;2022-10-03T13:26:59;2.35;;;1.90;;
20065;SDS011;10193;48.884;9.182;2022-10-03T13:29:38;2.22;;;2.03;;
20065;SDS011;10193;48.884;9.182;2022-10-03T13:38:15;2.05;;;1.85;;
20065;SDS011;10193;48.884;9.182;2022-10-03T13:41:05;2.38;;;1.92;;
20065;SDS011;10193;48.884;9.182;2022-10-03T13:43:40;1.88;;;1.58;;
20065;SDS011;10193;48.884;9.182;2022-10-03T13:46:13;2.50;;;1.95;;
20065;SDS011;10193;48.884;9.182;2022-10-03T13:48:45;2.85;;;1.90;;
20065;SDS011;10193;48.884;9.182;2022-10-03T13:51:22;3.80;;;2.10;;
20065;SDS011;10193;48.884;9.182;2022-10-03T13:53:58;2.47;;;2.00;;
20065;SDS011;10193;48.884;9.182;2022-10-03T13:56:35;2.97;;;2.10;;
20065;SDS011;10193;48.884;9.182;2022-10-03T13:59:13;3.78;;;2.20;;
20065;SDS011;10193;48.884;9.182;2022-10-03T14:02:02;2.17;;;1.98;;
20065;SDS011;10193;48.884;9.182;2022-10-03T14:07:37;2.08;;;1.88;;
20065;SDS011;10193;48.884;9.182;2022-10-03T14:10:13;2.13;;;1.95;;
20065;SDS011;10193;48.884;9.182;2022-10-03T14:12:54;3.28;;;2.40;;
20065;SDS011;10193;48.884;9.182;2022-10-03T14:15:39;2.20;;;1.98;;
20065;SDS011;10193;48.884;9.182;2022-10-03T14:18:23;2.30;;;2.10;;
20065;SDS011;10193;48.884;9.182;2022-10-03T14:24:09;2.40;;;1.90;;
20065;SDS011;10193;48.884;9.182;2022-10-03T14:26:45;2.25;;;2.05;;
20065;SDS011;10193;48.884;9.182;2022-10-03T14:29:18;2.20;;;2.00;;
20065;SDS011;10193;48.884;9.182;2022-10-03T14:31:52;2.30;;;1.98;;
20065;SDS011;10193;48.884;9.182;2022-10-03T14:34:29;3.05;;;2.13;;
20065;SDS011;10193;48.884;9.182;2022-10-03T14:37:09;2.28;;;2.08;;
20065;SDS011;10193;48.884;9.182;2022-10-03T14:39:46;2.25;;;2.03;;
20065;SDS011;10193;48.884;9.182;2022-10-03T14:42:32;3.75;;;2.17;;
20065;SDS011;10193;48.884;9.182;2022-10-03T14:45:11;3.08;;;1.90;;
20065;SDS011;10193;48.884;9.182;2022-10-03T14:47:45;2.83;;;1.90;;
20065;SDS011;10193;48.884;9.182;2022-10-03T14:50:15;2.22;;;1.85;;
20065;SDS011;10193;48.884;9.182;2022-10-03T14:52:44;3.33;;;2.03;;
20065;SDS011;10193;48.884;9.182;2022-10-03T14:55:16;2.28;;;1.90;;
20065;SDS011;10193;48.884;9.182;2022-10-03T14:57:47;2.90;;;2.20;;
20065;SDS011;10193;48.884;9.182;2022-10-03T15:00:23;2.58;;;1.88;;
20065;SDS011;10193;48.884;9.182;2022-10-03T15:02:54;2.03;;;1.75;;
20065;SDS011;10193;48.884;9.182;2022-10-03T15:05:21;3.10;;;2.20;;
20065;SDS011;10193;48.884;9.182;2022-10-03T15:07:59;2.58;;;1.85;;
20065;SDS011;10193;48.884;9.182;2022-10-03T15:10:28;3.00;;;2.00;;
20065;SDS011;10193;48.884;9.182;2022-10-03T15:12:57;2.38;;;1.90;;
20065;SDS011;10193;48.884;9.182;2022-10-03T15:15:29;3.15;;;2.10;;
20065;SDS011;10193;48.884;9.182;2022-10-03T15:18:01;3.00;;;2.40;;
20065;SDS011;10193;48.884;9.182;2022-10-03T15:20:31;2.13;;;1.92;;
20065;SDS011;10193;48.884;9.182;2022-10-03T15:23:01;3.85;;;2.17;;
20065;SDS011;10193;48.884;9.182;2022-10-03T15:25:31;2.75;;;1.98;;
20065;SDS011;10193;48.884;9.182;2022-10-03T15:28:03;2.83;;;2.10;;
20065;SDS011;10193;48.884;9.182;2022-10-03T15:30:34;3.25;;;2.00;;
20065;SDS011;10193;48.884;9.182;2022-10-03T15:33:05;2.50;;;1.90;;
20065;SDS011;10193;48.884;9.182;2022-10-03T15:35:38;2.22;;;1.98;;
20065;SDS011;10193;48.884;9.182;2022-10-03T15:38:09;3.08;;;2.40;;
20065;SDS011;10193;48.884;9.182;2022-10-03T15:40:40;2.65;;;2.20;;
20065;SDS011;10193;48.884;9.182;2022-10-03T15:43:16;2.25;;;2.03;;
20065;SDS011;10193;48.884;9.182;2022-10-03T15:45:53;2.72;;;2.20;;
20065;SDS011;10193;48.884;9.182;2022-10-03T15:48:23;2.22;;;1.90;;
20065;SDS011;10193;48.884;9.182;2022-10-03T15:50:53;2.40;;;2.15;;
20065;SDS011;10193;48.884;9.182;2022-10-03T15:53:23;3.45;;;2.28;;
20065;SDS011;10193;48.884;9.182;2022-10-03T15:55:53;2.33;;;1.98;;
20065;SDS011;10193;48.884;9.182;2022-10-03T15:58:35;2.60;;;1.80;;
20065;SDS011;10193;48.884;9.182;2022-10-03T16:01:04;2.28;;;2.08;;
20065;SDS011;10193;48.884;9.182;2022-10-03T16:03:38;2.92;;;2.13;;
20065;SDS011;10193;48.884;9.182;2022-10-03T16:06:11;2.72;;;2.00;;
20065;SDS011;10193;48.884;9.182;2022-10-03T16:08:51;2.72;;;1.85;;
20065;SDS011;10193;48.884;9.182;2022-10-03T16:11:23;2.03;;;1.83;;
20065;SDS011;10193;48.884;9.182;2022-10-03T16:13:54;2.22;;;2.03;;
20065;SDS011;10193;48.884;9.182;2022-10-03T16:16:34;2.22;;;2.03;;
20065;SDS011;10193;48.884;9.182;2022-10-03T16:21:54;2.58;;;1.70;;
20065;SDS011;10193;48.884;9.182;2022-10-03T16:24:30;2.58;;;2.13;;
20065;SDS011;10193;48.884;9.182;2022-10-03T16:27:09;2.88;;;2.47;;
20065;SDS011;10193;48.884;9.182;2022-10-03T16:29:42;2.13;;;2.03;;
20065;SDS011;10193;48.884;9.182;2022-10-03T16:32:15;2.45;;;1.95;;
20065;SDS011;10193;48.884;9.182;2022-10-03T16:34:45;3.17;;;2.08;;
20065;SDS011;10193;48.884;9.182;2022-10-03T16:37:15;2.50;;;2.05;;
20065;SDS011;10193;48.884;9.182;2022-10-03T16:39:46;2.45;;;1.92;;
20065;SDS011;10193;48.884;9.182;2022-10-03T16:42:20;2.55;;;1.90;;
20065;SDS011;10193;48.884;9.182;2022-10-03T16:44:50;2.30;;;2.10;;
20065;SDS011;10193;48.884;9.182;2022-10-03T16:47:26;2.22;;;2.03;;
20065;SDS011;10193;48.884;9.182;2022-10-03T16:49:57;2.45;;;2.25;;
20065;SDS011;10193;48.884;9.182;2022-10-03T16:52:57;2.60;;;2.40;;
20065;SDS011;10193;48.884;9.182;2022-10-03T16:55:25;2.45;;;2.25;;
20065;SDS011;10193;48.884;9.182;2022-10-03T16:57:56;2.97;;;2.75;;
20065;SDS011;10193;48.884;9.182;2022-10-03T17:00:27;4.47;;;2.80;;
20065;SDS011;10193;48.884;9.182;2022-10-03T17:03:00;2.88;;;2.63;;
20065;SDS011;10193;48.884;9.182;2022-10-03T17:05:31;3.03;;;2.63;;
20065;SDS011;10193;48.884;9.182;2022-10-03T17:08:07;3.60;;;2.90;;
20065;SDS011;10193;48.884;9.182;2022-10-03T17:10:38;3.05;;;2.70;;
20065;SDS011;10193;48.884;9.182;2022-10-03T17:13:10;3.35;;;2.80;;
20065;SDS011;10193;48.884;9.182;2022-10-03T17:15:43;3.60;;;2.63;;
20065;SDS011;10193;48.884;9.182;2022-10-03T17:18:19;3.20;;;2.85;;
20065;SDS011;10193;48.884;9.182;2022-10-03T17:20:52;3.53;;;2.78;;
20065;SDS011;10193;48.884;9.182;2022-10-03T17:23:26;3.63;;;2.67;;
20065;SDS011;10193;48.884;9.182;2022-10-03T17:25:57;2.15;;;2.05;;
20065;SDS011;10193;48.884;9.182;2022-10-03T17:28:29;2.67;;;2.40;;
20065;SDS011;10193;48.884;9.182;2022-10-03T17:31:02;3.50;;;2.15;;
20065;SDS011;10193;48.884;9.182;2022-10-03T17:33:34;2.30;;;2.15;;
20065;SDS011;10193;48.884;9.182;2022-10-03T17:39:04;2.35;;;2.00;;
20065;SDS011;10193;48.884;9.182;2022-10-03T17:41:36;3.40;;;2.50;;
20065;SDS011;10193;48.884;9.182;2022-10-03T17:44:17;2.45;;;2.22;;
20065;SDS011;10193;48.884;9.182;2022-10-03T17:46:54;2.58;;;2.35;;
20065;SDS011;10193;48.884;9.182;2022-10-03T17:49:29;3.30;;;2.60;;
20065;SDS011;10193;48.884;9.182;2022-10-03T17:52:13;3.53;;;2.92;;
20065;SDS011;10193;48.884;9.182;2022-10-03T17:54:43;3.40;;;2.70;;
20065;SDS011;10193;48.884;9.182;2022-10-03T17:57:12;3.00;;;2.80;;
20065;SDS011;10193;48.884;9.182;2022-10-03T17:59:46;3.10;;;2.80;;
20065;SDS011;10193;48.884;9.182;2022-10-03T18:02:28;3.33;;;3.03;;
20065;SDS011;10193;48.884;9.182;2022-10-03T18:05:01;3.17;;;2.88;;
20065;SDS011;10193;48.884;9.182;2022-10-03T18:07:35;2.90;;;2.70;;
20065;SDS011;10193;48.884;9.182;2022-10-03T18:10:03;3.38;;;3.08;;
20065;SDS011;10193;48.884;9.182;2022-10-03T18:12:33;3.45;;;3.10;;
20065;SDS011;10193;48.884;9.182;2022-10-03T18:15:31;3.17;;;2.88;;
20065;SDS011;10193;48.884;9.182;2022-10-03T18:21:55;3.10;;;2.80;;
20065;SDS011;10193;48.884;9.182;2022-10-03T18:24:39;3.35;;;2.95;;
20065;SDS011;10193;48.884;9.182;2022-10-03T18:27:22;3.03;;;2.72;;
20065;SDS011;10193;48.884;9.182;2022-10-03T18:30:12;3.30;;;2.90;;
20065;SDS011;10193;48.884;9.182;2022-10-03T18:32:42;4.07;;;2.88;;
20065;SDS011;10193;48.884;9.182;2022-10-03T18:35:11;3.38;;;2.97;;
20065;SDS011;10193;48.884;9.182;2022-10-03T18:40:41;3.33;;;2.78;;
20065;SDS011;10193;48.884;9.182;2022-10-03T18:43:27;3.15;;;2.88;;
20065;SDS011;10193;48.884;9.182;2022-10-03T18:48:45;3.03;;;2.80;;
20065;SDS011;10193;48.884;9.182;2022-10-03T18:51:21;4.28;;;3.28;;
20065;SDS011;10193;48.884;9.182;2022-10-03T18:53:55;4.43;;;3.15;;
20065;SDS011;10193;48.884;9.182;2022-10-03T18:56:28;3.58;;;3.28;;
20065;SDS011;10193;48.884;9.182;2022-10-03T18:59:01;3.78;;;3.17;;
20065;SDS011;10193;48.884;9.182;2022-10-03T19:01:38;3.63;;;3.33;;
20065;SDS011;10193;48.884;9.182;2022-10-03T19:04:17;4.03;;;3.63;;
20065;SDS011;10193;48.884;9.182;2022-10-03T19:06:49;5.20;;;3.45;;
20065;SDS011;10193;48.884;9.182;2022-10-03T19:09:19;3.95;;;3.50;;
20065;SDS011;10193;48.884;9.182;2022-10-03T19:11:53;4.20;;;3.47;;
20065;SDS011;10193;48.884;9.182;2022-10-03T19:14:27;3.60;;;3.30;;
20065;SDS011;10193;48.884;9.182;2022-10-03T19:17:05;4.40;;;3.60;;
20065;SDS011;10193;48.884;9.182;2022-10-03T19:19:45;3.97;;;3.67;;
20065;SDS011;10193;48.884;9.182;2022-10-03T19:22:16;5.78;;;3.78;;
20065;SDS011;10193;48.884;9.182;2022-10-03T19:24:48;3.78;;;3.47;;
20065;SDS011;10193;48.884;9.182;2022-10-03T19:27:18;4.75;;;4.22;;
20065;SDS011;10193;48.884;9.182;2022-10-03T19:29:50;5.50;;;4.00;;
20065;SDS011;10193;48.884;9.182;2022-10-03T19:32:21;5.03;;;4.53;;
20065;SDS011;10193;48.884;9.182;2022-10-03T19:34:51;6.25;;;5.57;;